Metar

I have been trying to change my Metar report to a different airport
only one out of 4 will work when I use the %metar/report=%
the rest give me an error code as follows
NOT FOUND
The requested URL /pub/data/observations/metar/decoded/KZSE.TXT was not found on this server.
Any Ideas? :idea:

In WD KSZE is Auburn WA, but airnav doesn’t show it. Maybe the list is out of date?

http://www.airnav.com/airport/S50

The METAR’s shown are;

KSEA 150156Z 00000KT 10SM CLR 07/06 A3035 RMK AO2 SLP281 T00670056
KRNT 150153Z 00000KT 10SM CLR 06/03 A3036 RMK AO2 SLP284 T00610033
KBFI 150153Z VRB05KT 10SM CLR 08/05 A3036 RMK AO2 SLP279 T00830050
KTIW 150219Z 31003KT 2SM BR OVC001 06/05 A3036 RMK AO2
KTCM 150236Z VRB01KT 3SM BR SCT005 SCT020 02/02 A3034

Maybe thats whats wrong I just picked one from the list I know the KRTN
works but thats It I tried a couple of them around here with the same message!

You can go to

http://www.ar-group.com/icaoiata.htm

To find the locator by name, KZSE is the Seattle Air Traffic Control Center.

When you find a likely code plug it into;

http://weather.noaa.gov/weather/metar.shtml

To see if a Metar is available.

Steve

Thanks for the help I have Boeing and SeaTac And Renton
plugged in now and they are working and they are the closet to me so that should work. Thanks for all the help I’m still learning here! :smiley: